Ternholm — OWIM2 — position and weather

sailwx.info

Track history (hours):
 
Tides and Currents Weather Stations Pressure Air Temp Water Temp Dewpoint Dewpoint Depression Visibility Wind Speed Wind Dir Waves Ship Positions

Ternholm

Last reported at 2014-Sep-20 16:14 UTC. Time now 2014-Sep-24 00:25 UTC.
Position N 58°16' E 018°36'.

Length 141 m; draft 8.7 m.

Type: Ship (hazmat cat C). MMSI: 219076000.

Date/timePositionNaut miles runAvg speedWind from/ knotsBaromVisibWave heightAir tempDewpointWater temp
2014-Sep-20 16:14N 58°16' E 018°36'1311.4
2014-Sep-20 15:07N 58°05' E 018°24'611.4
2014-Sep-20 14:34N 57°59' E 018°18'1311.5
2014-Sep-20 13:28N 57°48' E 018°07'1111.5
2014-Sep-20 12:29N 57°38' E 017°58'1111.5
2014-Sep-20 11:34N 57°28' E 017°50'1211.8
2014-Sep-20 10:33N 57°17' E 017°45'1211.5
2014-Sep-20 09:33N 57°05' E 017°42'1111.3
2014-Sep-20 08:32N 56°55' E 017°35'1111.4
2014-Sep-20 07:33N 56°45' E 017°26'2311.4
2014-Sep-20 05:34N 56°24' E 017°07'1211.6
2014-Sep-20 04:33N 56°14' E 016°58'1511.3
2014-Sep-20 03:16N 56°02' E 016°43'811.6
2014-Sep-20 02:34N 55°58' E 016°31'1311.7
2014-Sep-20 01:26N 55°51' E 016°10'1011.4
2014-Sep-20 00:34N 55°46' E 015°55'1211.7
2014-Sep-19 23:33N 55°41' E 015°36'1111.5
2014-Sep-19 22:34N 55°36' E 015°18'1111.5
2014-Sep-19 21:34N 55°31' E 015°00'1211.7
2014-Sep-19 20:34N 55°25' E 014°42'1111.4
2014-Sep-19 19:34N 55°16' E 014°29'1211.9
2014-Sep-19 18:34N 55°07' E 014°15'1111.5
2014-Sep-19 17:34N 54°60' E 014°00'1211.7
2014-Sep-19 16:34N 54°56' E 013°41'1211.5
2014-Sep-19 15:33N 54°53' E 013°22'1211.7
2014-Sep-19 14:34N 54°49' E 013°02'1211.5
2014-Sep-19 13:34N 54°45' E 012°43'1211.6
2014-Sep-19 12:33N 54°39' E 012°27'1111.1
2014-Sep-19 11:34N 54°30' E 012°14'10 9.9
2014-Sep-19 10:34N 54°24' E 012°01'1111.1
2014-Sep-19 09:33N 54°26' E 011°42'1211.9
2014-Sep-19 08:33N 54°31' E 011°23'1211.7
2014-Sep-19 07:34N 54°37' E 011°05'1010.3
2014-Sep-19 06:33N 54°44' E 010°52'1311.4
2014-Sep-19 05:27N 54°56' E 010°55'1311.1
2014-Sep-19 04:16N 55°09' E 011°02'710.2
2014-Sep-19 03:33N 55°16' E 011°04'1211.8
2014-Sep-19 02:33N 55°27' E 010°56'1211.7
2014-Sep-19 01:33N 55°37' E 010°47'1111.2
2014-Sep-19 00:33N 55°48' E 010°48'1111.3
2014-Sep-18 23:33N 55°58' E 011°00'1111.4
2014-Sep-18 22:33N 56°08' E 011°10'1211.6
2014-Sep-18 21:30N 56°17' E 011°23'1211.6
2014-Sep-18 20:27N 56°28' E 011°33'1011.8
2014-Sep-18 19:33N 56°37' E 011°43'1110.7
2014-Sep-18 18:32N 56°47' E 011°49'1211.8
2014-Sep-18 17:33N 56°58' E 011°43'1111.5
2014-Sep-18 16:33N 57°09' E 011°36'1111.1
2014-Sep-18 15:34N 57°20' E 011°30'10 9.8
2014-Sep-18 14:34N 57°30' E 011°31'1111.1
2014-Sep-18 13:34N 57°39' E 011°43'6 5.7
2014-Sep-18 12:33N 57°41' E 011°52'0 0.0
2014-Sep-18 11:33N 57°41' E 011°52'0 0.0
2014-Sep-18 10:33N 57°41' E 011°52'0 0.0
2014-Sep-18 09:33N 57°41' E 011°52'0 0.0
2014-Sep-18 08:33N 57°41' E 011°52'0 0.0
2014-Sep-18 07:33N 57°41' E 011°52'0 0.0
2014-Sep-18 06:33N 57°41' E 011°52'0 0.0
2014-Sep-18 05:33N 57°41' E 011°52'0 0.0
2014-Sep-18 04:33N 57°41' E 011°52'0 0.0
2014-Sep-18 03:33N 57°41' E 011°52'0 0.0
2014-Sep-18 02:33N 57°41' E 011°52'0 0.0
2014-Sep-18 01:33N 57°41' E 011°52'0 0.0
2014-Sep-18 00:33N 57°41' E 011°52'0 0.0
2014-Sep-17 23:33N 57°41' E 011°52'0 0.0
2014-Sep-17 22:33N 57°41' E 011°52'0 0.0
2014-Sep-17 21:33N 57°41' E 011°52'0 0.0
2014-Sep-17 20:33N 57°41' E 011°52'0 0.0
2014-Sep-17 19:33N 57°41' E 011°52'0 0.0
2014-Sep-17 18:33N 57°41' E 011°52'0 0.0
2014-Sep-17 17:33N 57°41' E 011°52'0 0.0
2014-Sep-17 16:33N 57°41' E 011°52'0 0.0
2014-Sep-17 15:33N 57°41' E 011°52'0 0.0
2014-Sep-17 14:33N 57°41' E 011°52'0 0.0
2014-Sep-17 13:33N 57°41' E 011°52'2 2.3
2014-Sep-17 12:33N 57°41' E 011°48'1111.1
2014-Sep-17 11:33N 57°31' E 011°38'11 9.9
2014-Sep-17 10:30N 57°21' E 011°45'10 9.9
2014-Sep-17 09:27N 57°12' E 011°55'9 9.8
2014-Sep-17 08:33N 57°04' E 012°00'1110.3
2014-Sep-17 07:32N 56°54' E 012°06'1110.9
2014-Sep-17 06:33N 56°44' E 012°12'1110.8
2014-Sep-17 05:33N 56°33' E 012°14'1111.4
2014-Sep-17 04:33N 56°22' E 012°17'1111.2
2014-Sep-17 03:33N 56°12' E 012°26'1413.6
2014-Sep-17 02:33N 56°01' E 012°41'1211.9
2014-Sep-17 01:33N 55°50' E 012°46'1110.8
2014-Sep-17 00:33N 55°40' E 012°56'10 9.5
2014-Sep-16 23:33N 55°32' E 012°47'1010.2
2014-Sep-16 22:33N 55°23' E 012°41'9 8.9
2014-Sep-16 21:33N 55°16' E 012°51'10 9.7
2014-Sep-16 20:31N 55°15' E 013°09'1010.5
2014-Sep-16 19:33N 55°15' E 013°26'1110.7
2014-Sep-16 18:33N 55°14' E 013°45'1110.9
2014-Sep-16 17:33N 55°14' E 014°04'1010.1
2014-Sep-16 16:33N 55°17' E 014°21'1111.3
2014-Sep-16 15:33N 55°26' E 014°34'1111.0
2014-Sep-16 14:33N 55°31' E 014°50'1211.0
2014-Sep-16 13:27N 55°37' E 015°09'1210.9
2014-Sep-16 12:20N 55°43' E 015°28'910.8
2014-Sep-16 11:32N 55°48' E 015°41'2110.9
2014-Sep-16 09:33N 55°58' E 016°15'2110.7
2014-Sep-16 07:33N 56°11' E 016°45'1311.0
2014-Sep-16 06:21N 56°23' E 016°54'1012.1
2014-Sep-16 05:33N 56°32' E 017°01'1212.3
2014-Sep-16 04:33N 56°43' E 017°09'1212.2
2014-Sep-16 03:33N 56°55' E 017°17'1212.4
2014-Sep-16 02:33N 57°07' E 017°25'1212.2
2014-Sep-16 01:33N 57°18' E 017°33'1212.2
2014-Sep-16 00:33N 57°29' E 017°41'1512.2
2014-Sep-15 23:18N 57°42' E 017°56'5912.2
2014-Sep-15 18:30N 58°33' E 018°52'  
2014-Sep-11 00:16N 57°31' E 017°52'2613.0
2014-Sep-10 22:19N 57°06' E 017°42'  
Track history (hours):
 
Tides and Currents Weather Stations Pressure Air Temp Water Temp Dewpoint Dewpoint Depression Visibility Wind Speed Wind Dir Waves Ship Positions

Ternholm

Last reported at 2014-Sep-20 16:14 UTC. Time now 2014-Sep-24 00:25 UTC.
Position N 58°16' E 018°36'.

Length 141 m; draft 8.7 m.

Type: Ship (hazmat cat C). MMSI: 219076000.

Date/timePositionNaut miles runAvg speedWind from/ knotsBaromVisibWave heightAir tempDewpointWater temp
2014-Sep-20 16:14N 58°16' E 018°36'1311.4
2014-Sep-20 15:07N 58°05' E 018°24'611.4
2014-Sep-20 14:34N 57°59' E 018°18'1311.5
2014-Sep-20 13:28N 57°48' E 018°07'1111.5
2014-Sep-20 12:29N 57°38' E 017°58'1111.5
2014-Sep-20 11:34N 57°28' E 017°50'1211.8
2014-Sep-20 10:33N 57°17' E 017°45'1211.5
2014-Sep-20 09:33N 57°05' E 017°42'1111.3
2014-Sep-20 08:32N 56°55' E 017°35'1111.4
2014-Sep-20 07:33N 56°45' E 017°26'2311.4
2014-Sep-20 05:34N 56°24' E 017°07'1211.6
2014-Sep-20 04:33N 56°14' E 016°58'1511.3
2014-Sep-20 03:16N 56°02' E 016°43'811.6
2014-Sep-20 02:34N 55°58' E 016°31'1311.7
2014-Sep-20 01:26N 55°51' E 016°10'1011.4
2014-Sep-20 00:34N 55°46' E 015°55'1211.7
2014-Sep-19 23:33N 55°41' E 015°36'1111.5
2014-Sep-19 22:34N 55°36' E 015°18'1111.5
2014-Sep-19 21:34N 55°31' E 015°00'1211.7
2014-Sep-19 20:34N 55°25' E 014°42'1111.4
2014-Sep-19 19:34N 55°16' E 014°29'1211.9
2014-Sep-19 18:34N 55°07' E 014°15'1111.5
2014-Sep-19 17:34N 54°60' E 014°00'1211.7
2014-Sep-19 16:34N 54°56' E 013°41'1211.5
2014-Sep-19 15:33N 54°53' E 013°22'1211.7
2014-Sep-19 14:34N 54°49' E 013°02'1211.5
2014-Sep-19 13:34N 54°45' E 012°43'1211.6
2014-Sep-19 12:33N 54°39' E 012°27'1111.1
2014-Sep-19 11:34N 54°30' E 012°14'10 9.9
2014-Sep-19 10:34N 54°24' E 012°01'1111.1
2014-Sep-19 09:33N 54°26' E 011°42'1211.9
2014-Sep-19 08:33N 54°31' E 011°23'1211.7
2014-Sep-19 07:34N 54°37' E 011°05'1010.3
2014-Sep-19 06:33N 54°44' E 010°52'1311.4
2014-Sep-19 05:27N 54°56' E 010°55'1311.1
2014-Sep-19 04:16N 55°09' E 011°02'710.2
2014-Sep-19 03:33N 55°16' E 011°04'1211.8
2014-Sep-19 02:33N 55°27' E 010°56'1211.7
2014-Sep-19 01:33N 55°37' E 010°47'1111.2
2014-Sep-19 00:33N 55°48' E 010°48'1111.3
2014-Sep-18 23:33N 55°58' E 011°00'1111.4
2014-Sep-18 22:33N 56°08' E 011°10'1211.6
2014-Sep-18 21:30N 56°17' E 011°23'1211.6
2014-Sep-18 20:27N 56°28' E 011°33'1011.8
2014-Sep-18 19:33N 56°37' E 011°43'1110.7
2014-Sep-18 18:32N 56°47' E 011°49'1211.8
2014-Sep-18 17:33N 56°58' E 011°43'1111.5
2014-Sep-18 16:33N 57°09' E 011°36'1111.1
2014-Sep-18 15:34N 57°20' E 011°30'10 9.8
2014-Sep-18 14:34N 57°30' E 011°31'1111.1
2014-Sep-18 13:34N 57°39' E 011°43'6 5.7
2014-Sep-18 12:33N 57°41' E 011°52'0 0.0
2014-Sep-18 11:33N 57°41' E 011°52'0 0.0
2014-Sep-18 10:33N 57°41' E 011°52'0 0.0
2014-Sep-18 09:33N 57°41' E 011°52'0 0.0
2014-Sep-18 08:33N 57°41' E 011°52'0 0.0
2014-Sep-18 07:33N 57°41' E 011°52'0 0.0
2014-Sep-18 06:33N 57°41' E 011°52'0 0.0
2014-Sep-18 05:33N 57°41' E 011°52'0 0.0
2014-Sep-18 04:33N 57°41' E 011°52'0 0.0
2014-Sep-18 03:33N 57°41' E 011°52'0 0.0
2014-Sep-18 02:33N 57°41' E 011°52'0 0.0
2014-Sep-18 01:33N 57°41' E 011°52'0 0.0
2014-Sep-18 00:33N 57°41' E 011°52'0 0.0
2014-Sep-17 23:33N 57°41' E 011°52'0 0.0
2014-Sep-17 22:33N 57°41' E 011°52'0 0.0
2014-Sep-17 21:33N 57°41' E 011°52'0 0.0
2014-Sep-17 20:33N 57°41' E 011°52'0 0.0
2014-Sep-17 19:33N 57°41' E 011°52'0 0.0
2014-Sep-17 18:33N 57°41' E 011°52'0 0.0
2014-Sep-17 17:33N 57°41' E 011°52'0 0.0
2014-Sep-17 16:33N 57°41' E 011°52'0 0.0
2014-Sep-17 15:33N 57°41' E 011°52'0 0.0
2014-Sep-17 14:33N 57°41' E 011°52'0 0.0
2014-Sep-17 13:33N 57°41' E 011°52'2 2.3
2014-Sep-17 12:33N 57°41' E 011°48'1111.1
2014-Sep-17 11:33N 57°31' E 011°38'11 9.9
2014-Sep-17 10:30N 57°21' E 011°45'10 9.9
2014-Sep-17 09:27N 57°12' E 011°55'9 9.8
2014-Sep-17 08:33N 57°04' E 012°00'1110.3
2014-Sep-17 07:32N 56°54' E 012°06'1110.9
2014-Sep-17 06:33N 56°44' E 012°12'1110.8
2014-Sep-17 05:33N 56°33' E 012°14'1111.4
2014-Sep-17 04:33N 56°22' E 012°17'1111.2
2014-Sep-17 03:33N 56°12' E 012°26'1413.6
2014-Sep-17 02:33N 56°01' E 012°41'1211.9
2014-Sep-17 01:33N 55°50' E 012°46'1110.8
2014-Sep-17 00:33N 55°40' E 012°56'10 9.5
2014-Sep-16 23:33N 55°32' E 012°47'1010.2
2014-Sep-16 22:33N 55°23' E 012°41'9 8.9
2014-Sep-16 21:33N 55°16' E 012°51'10 9.7
2014-Sep-16 20:31N 55°15' E 013°09'1010.5
2014-Sep-16 19:33N 55°15' E 013°26'1110.7
2014-Sep-16 18:33N 55°14' E 013°45'1110.9
2014-Sep-16 17:33N 55°14' E 014°04'1010.1
2014-Sep-16 16:33N 55°17' E 014°21'1111.3
2014-Sep-16 15:33N 55°26' E 014°34'1111.0
2014-Sep-16 14:33N 55°31' E 014°50'1211.0
2014-Sep-16 13:27N 55°37' E 015°09'1210.9
2014-Sep-16 12:20N 55°43' E 015°28'910.8
2014-Sep-16 11:32N 55°48' E 015°41'2110.9
2014-Sep-16 09:33N 55°58' E 016°15'2110.7
2014-Sep-16 07:33N 56°11' E 016°45'1311.0
2014-Sep-16 06:21N 56°23' E 016°54'1012.1
2014-Sep-16 05:33N 56°32' E 017°01'1212.3
2014-Sep-16 04:33N 56°43' E 017°09'1212.2
2014-Sep-16 03:33N 56°55' E 017°17'1212.4
2014-Sep-16 02:33N 57°07' E 017°25'1212.2
2014-Sep-16 01:33N 57°18' E 017°33'1212.2
2014-Sep-16 00:33N 57°29' E 017°41'1512.2
2014-Sep-15 23:18N 57°42' E 017°56'5912.2
2014-Sep-15 18:30N 58°33' E 018°52'  
2014-Sep-11 00:16N 57°31' E 017°52'2613.0
2014-Sep-10 22:19N 57°06' E 017°42'  

Dump ship's entire track history